Time;durP1;ratioP1;P1;durP2;ratioP2;P2;SDS_P1;SDS_P2;PMS_P1;PMS_P2;Temp;Humidity;BMP_temperature;BMP_pressure;BME280_temperature;BME280_humidity;BME280_pressure;Samples;Min_cycle;Max_cycle;Signal;HPM_P1;HPM_P2
2022/01/30 00:01:47;;;;;;;8.88;2.60;;;;;;;6.50;82.10;102306.44;5021825;28;20056;-73
2022/01/30 00:04:14;;;;;;;3.75;2.13;;;;;;;6.49;82.57;102320.41;5007305;28;20043;-74
2022/01/30 00:06:42;;;;;;;6.10;1.50;;;;;;;6.50;82.11;102332.53;5008656;28;20041;-72
2022/01/30 00:09:17;;;;;;;4.90;1.45;;;;;;;6.47;82.05;102334.41;5007571;28;20787;-72
2022/01/30 00:11:48;;;;;;;3.70;1.13;;;;;;;6.32;83.03;102334.97;5004963;28;20057;-73
2022/01/30 00:14:19;;;;;;;3.90;1.00;;;;;;;6.43;82.89;102333.69;5021474;27;20053;-71
2022/01/30 00:16:55;;;;;;;4.97;1.25;;;;;;;6.26;83.37;102336.97;5003660;28;20050;-72
2022/01/30 00:19:26;;;;;;;12.93;0.90;;;;;;;6.19;83.69;102336.31;5005810;28;20804;-71
2022/01/30 00:22:12;;;;;;;14.52;2.78;;;;;;;6.17;83.69;102332.06;5008554;28;20058;-73
2022/01/30 00:24:46;;;;;;;4.13;1.67;;;;;;;6.08;84.05;102332.41;5005080;28;20045;-72
2022/01/30 00:27:18;;;;;;;5.80;1.60;;;;;;;6.14;83.57;102330.44;5009298;27;20064;-71
2022/01/30 00:29:45;;;;;;;12.73;2.33;;;;;;;5.97;84.25;102342.34;5004833;27;20122;-73
2022/01/30 00:32:12;;;;;;;4.18;1.20;;;;;;;6.09;84.14;102348.00;5010868;27;20054;-74
2022/01/30 00:34:38;;;;;;;23.30;2.45;;;;;;;5.99;84.23;102330.09;5010452;27;20137;-73
2022/01/30 00:37:12;;;;;;;3.15;0.93;;;;;;;6.15;83.43;102333.88;5009526;27;20044;-72
2022/01/30 00:39:38;;;;;;;17.10;2.50;;;;;;;6.13;83.51;102347.00;5011123;27;20077;-73
2022/01/30 00:42:07;;;;;;;14.52;0.95;;;;;;;6.10;83.08;102346.25;5010303;27;20686;-74
2022/01/30 00:44:33;;;;;;;7.28;1.27;;;;;;;6.14;82.93;102346.09;5010409;27;20045;-72
2022/01/30 00:47:02;;;;;;;17.42;2.42;;;;;;;6.07;82.89;102335.91;5015406;27;20049;-72
2022/01/30 00:49:29;;;;;;;6.68;1.95;;;;;;;6.08;82.88;102337.63;5011424;27;20123;-72
2022/01/30 00:51:55;;;;;;;6.07;1.60;;;;;;;6.05;82.76;102335.09;5015107;27;20050;-72
2022/01/30 00:54:23;;;;;;;6.35;1.80;;;;;;;6.07;83.21;102346.34;5009072;27;20050;-72
2022/01/30 00:56:50;;;;;;;1.95;0.65;;;;;;;5.99;83.23;102354.44;5014556;27;20045;-73
2022/01/30 00:59:16;;;;;;;12.23;1.98;;;;;;;5.90;83.47;102365.19;5016499;27;20522;-71
2022/01/30 01:01:44;;;;;;;8.70;2.08;;;;;;;5.93;83.04;102359.03;5024278;27;20045;-74
2022/01/30 01:04:11;;;;;;;3.70;1.20;;;;;;;5.83;83.33;102353.25;5019601;27;20039;-72
2022/01/30 01:06:39;;;;;;;8.18;0.82;;;;;;;5.86;83.62;102355.75;5015534;27;20048;-73
2022/01/30 01:09:09;;;;;;;2.72;0.85;;;;;;;5.90;82.49;102369.56;5016667;27;20041;-72
2022/01/30 01:12:08;;;;;;;9.40;1.00;;;;;;;5.84;83.38;102369.78;5016105;27;20153;-74
2022/01/30 01:25:33;;;;;;;5.07;1.60;;;;;;;5.71;83.19;102363.22;5005382;27;20047;-73
2022/01/30 01:28:02;;;;;;;3.05;0.68;;;;;;;5.75;82.58;102362.22;5004774;27;20130;-72
2022/01/30 01:30:29;;;;;;;6.82;2.83;;;;;;;5.60;83.56;102354.91;5101578;27;20048;-73
2022/01/30 01:32:55;;;;;;;15.32;1.92;;;;;;;5.53;83.66;102364.69;5005203;27;20048;-72
2022/01/30 01:35:22;;;;;;;4.05;0.73;;;;;;;5.50;84.61;102369.16;5004347;27;20041;-72
2022/01/30 01:37:53;;;;;;;14.70;1.23;;;;;;;5.53;83.98;102371.66;5006738;27;20136;-72
2022/01/30 01:40:21;;;;;;;4.15;1.48;;;;;;;5.59;83.47;102368.84;5008732;27;20050;-71
2022/01/30 01:42:47;;;;;;;16.13;3.05;;;;;;;5.54;83.38;102366.41;5005409;27;21815;-73
2022/01/30 01:45:19;;;;;;;4.72;1.95;;;;;;;5.64;82.95;102366.94;5010090;27;20057;-73
2022/01/30 01:47:47;;;;;;;6.40;1.73;;;;;;;5.53;83.23;102367.28;5009700;27;20037;-73
2022/01/30 01:50:27;;;;;;;2.03;1.45;;;;;;;5.46;83.86;102364.91;5004651;27;20048;-73
2022/01/30 01:52:53;;;;;;;2.10;0.90;;;;;;;5.45;83.44;102365.84;5008366;27;20050;-72
2022/01/30 01:55:20;;;;;;;4.80;1.60;;;;;;;5.36;84.26;102360.94;5007383;27;20055;-71
2022/01/30 01:57:47;;;;;;;6.32;2.13;;;;;;;5.37;84.60;102365.25;5012797;27;20062;-72
2022/01/30 02:00:16;;;;;;;8.98;1.80;;;;;;;5.41;84.28;102361.63;5014995;27;20041;-73
2022/01/30 02:02:43;;;;;;;6.05;2.15;;;;;;;5.30;84.46;102361.09;5012541;27;20053;-73
2022/01/30 02:05:10;;;;;;;10.02;1.80;;;;;;;5.15;85.00;102363.38;5008182;27;20072;-72
2022/01/30 02:08:04;;;;;;;19.10;1.55;;;;;;;5.16;84.52;102358.09;4999127;27;20060;-72
2022/01/30 02:10:37;;;;;;;12.30;1.45;;;;;;;5.13;85.07;102373.81;5003953;27;20049;-72
2022/01/30 02:13:20;;;;;;;10.32;2.10;;;;;;;5.03;85.62;102376.75;5010780;27;20130;-73
2022/01/30 02:24:05;;;;;;;3.95;1.17;;;;;;;5.09;85.03;102369.59;5014975;27;20120;-72
2022/01/30 02:26:36;;;;;;;2.55;0.85;;;;;;;5.16;84.92;102363.31;5007317;27;20081;-73
2022/01/30 02:29:03;;;;;;;5.45;1.88;;;;;;;5.03;85.15;102355.91;5006077;27;20054;-71
2022/01/30 02:31:34;;;;;;;4.00;0.88;;;;;;;4.96;85.28;102364.81;5009333;27;20077;-71
2022/01/30 02:34:01;;;;;;;14.05;1.55;;;;;;;4.79;86.46;102367.94;5005278;27;20060;-73
2022/01/30 02:36:28;;;;;;;6.60;1.77;;;;;;;4.83;86.04;102369.53;5005815;27;20053;-71
2022/01/30 02:38:57;;;;;;;10.30;2.25;;;;;;;4.73;87.23;102381.13;5012404;27;20139;-72
2022/01/30 02:41:28;;;;;;;5.80;2.30;;;;;;;4.72;86.99;102381.19;5006022;28;20053;-72
2022/01/30 02:44:07;;;;;;;12.57;2.58;;;;;;;4.65;87.89;102378.78;5016268;27;20129;-73
2022/01/30 02:46:38;;;;;;;5.97;1.35;;;;;;;4.45;88.13;102386.31;5007232;27;20049;-72
2022/01/30 02:49:24;;;;;;;8.77;1.67;;;;;;;4.57;87.79;102391.16;5004862;27;20507;-71
2022/01/30 02:51:56;;;;;;;17.85;3.97;;;;;;;4.48;88.41;102407.03;5008857;27;20142;-73
2022/01/30 02:54:25;;;;;;;12.55;1.45;;;;;;;4.43;88.70;102398.50;5008325;27;20044;-72
2022/01/30 02:56:53;;;;;;;10.32;1.88;;;;;;;4.37;88.85;102398.69;5015199;27;20050;-72
2022/01/30 02:59:20;;;;;;;11.88;1.95;;;;;;;4.42;88.31;102391.59;5003526;27;20163;-71
2022/01/30 03:01:47;;;;;;;8.10;1.30;;;;;;;4.39;89.07;102396.91;5013170;27;20046;-71
2022/01/30 03:04:14;;;;;;;2.90;1.48;;;;;;;4.25;89.19;102399.00;5011809;27;20044;-71
2022/01/30 03:06:41;;;;;;;5.95;1.65;;;;;;;4.41;89.03;102402.91;5007230;27;20050;-70
2022/01/30 03:09:08;;;;;;;10.13;1.95;;;;;;;4.44;88.29;102403.66;5008592;27;20097;-72
2022/01/30 03:11:35;;;;;;;22.20;3.30;;;;;;;4.34;88.64;102416.97;5009278;28;20056;-72
2022/01/30 03:14:04;;;;;;;10.18;1.48;;;;;;;4.32;89.31;102417.03;5021037;27;20149;-71
2022/01/30 03:16:31;;;;;;;3.05;1.67;;;;;;;4.37;88.89;102429.91;5024610;27;20101;-71
2022/01/30 03:18:58;;;;;;;1.65;1.30;;;;;;;4.50;88.68;102441.69;5025593;27;20053;-72
2022/01/30 03:21:25;;;;;;;7.60;2.67;;;;;;;4.48;88.61;102438.25;5013092;28;20049;-72
2022/01/30 03:23:51;;;;;;;6.55;1.38;;;;;;;4.47;89.08;102444.38;5007301;28;20084;-71
2022/01/30 03:26:18;;;;;;;6.20;1.92;;;;;;;4.61;88.03;102439.63;5005449;28;20173;-73
2022/01/30 03:28:47;;;;;;;4.75;1.52;;;;;;;4.73;87.39;102440.16;5011773;28;20050;-72
2022/01/30 03:31:18;;;;;;;13.77;1.10;;;;;;;4.64;87.36;102444.78;5012209;28;20186;-73
2022/01/30 03:33:45;;;;;;;9.38;1.85;;;;;;;4.50;88.50;102447.75;5011766;28;20043;-71
2022/01/30 03:36:12;;;;;;;11.63;0.77;;;;;;;4.36;88.61;102454.22;5007966;28;20065;-73
2022/01/30 03:38:38;;;;;;;7.55;2.30;;;;;;;4.40;88.43;102455.81;5013700;28;20045;-70
2022/01/30 03:41:05;;;;;;;7.70;2.88;;;;;;;4.37;88.91;102455.94;5010284;28;20061;-72
2022/01/30 03:43:31;;;;;;;12.63;1.75;;;;;;;4.30;89.37;102460.44;5011578;28;20501;-72
2022/01/30 03:45:58;;;;;;;16.60;3.78;;;;;;;4.28;89.69;102461.38;5022076;28;20149;-72
2022/01/30 03:48:26;;;;;;;3.67;1.05;;;;;;;4.33;89.31;102465.56;5021902;28;20492;-72
2022/01/30 03:50:53;;;;;;;9.73;2.05;;;;;;;4.31;89.08;102466.50;5030586;28;20045;-72
2022/01/30 03:53:19;;;;;;;1.33;0.85;;;;;;;4.28;89.40;102466.56;5028149;28;20043;-72
2022/01/30 03:55:47;;;;;;;3.10;0.98;;;;;;;4.22;89.64;102467.56;5022681;28;20038;-72
2022/01/30 03:58:14;;;;;;;2.47;1.25;;;;;;;4.22;90.40;102458.94;5005873;28;20041;-72
2022/01/30 04:00:41;;;;;;;2.20;1.30;;;;;;;4.28;89.99;102467.41;5008580;27;20140;-72
2022/01/30 04:03:07;;;;;;;16.35;2.88;;;;;;;4.47;89.34;102463.44;5008336;27;20034;-72
2022/01/30 04:05:38;;;;;;;9.77;2.33;;;;;;;4.67;88.63;102463.75;5008526;27;20047;-71
2022/01/30 04:08:06;;;;;;;0.88;0.60;;;;;;;4.80;88.33;102462.50;5013778;27;20042;-73
2022/01/30 04:10:34;;;;;;;5.72;1.15;;;;;;;4.88;88.68;102461.38;5008571;27;20073;-71
2022/01/30 04:13:01;;;;;;;5.55;0.63;;;;;;;4.94;88.34;102458.63;5007578;27;20058;-73
2022/01/30 04:15:29;;;;;;;0.40;0.38;;;;;;;5.04;87.76;102459.19;5008749;27;20054;-72
2022/01/30 04:17:56;;;;;;;10.75;2.05;;;;;;;5.04;87.95;102461.78;5013814;27;20043;-71
2022/01/30 04:20:23;;;;;;;2.72;0.95;;;;;;;5.14;87.06;102471.06;5007306;27;20050;-74
2022/01/30 04:22:51;;;;;;;1.90;1.02;;;;;;;5.15;87.11;102470.16;5014832;27;20053;-71
2022/01/30 04:25:18;;;;;;;2.10;1.17;;;;;;;5.15;87.01;102468.38;5104368;27;20121;-71
2022/01/30 04:27:44;;;;;;;3.35;2.00;;;;;;;5.09;87.46;102460.75;5012455;27;20041;-73
2022/01/30 04:30:12;;;;;;;11.55;2.08;;;;;;;4.87;88.03;102469.25;5014037;27;20064;-73
2022/01/30 04:32:42;;;;;;;9.82;1.17;;;;;;;4.76;88.09;102464.34;5007308;27;20150;-73
2022/01/30 04:35:13;;;;;;;15.77;1.25;;;;;;;4.62;89.36;102460.41;5007085;27;20049;-71
2022/01/30 04:37:53;;;;;;;2.00;1.17;;;;;;;4.56;89.67;102464.91;5009815;27;20048;-71
2022/01/30 04:40:44;;;;;;;12.93;2.42;;;;;;;4.45;89.30;102474.78;5014930;27;20045;-72
2022/01/30 04:54:58;;;;;;;2.80;0.95;;;;;;;4.27;89.57;102465.69;5011505;27;20042;-71
2022/01/30 04:57:37;;;;;;;;;;;;;;;4.35;89.24;102481.13;5010847;27;20171;-73
2022/01/30 05:00:21;;;;;;;8.60;0.93;;;;;;;4.44;88.43;102483.47;5030723;27;20016;-71
2022/01/30 05:02:57;;;;;;;10.00;1.35;;;;;;;4.37;88.49;102490.59;5008520;27;20041;-72
2022/01/30 05:05:43;;;;;;;11.18;0.63;;;;;;;4.30;89.15;102491.63;5009249;27;20053;-73
2022/01/30 05:08:12;;;;;;;5.53;2.33;;;;;;;4.39;88.08;102495.78;5009497;27;20049;-72
2022/01/30 05:10:38;;;;;;;10.60;1.65;;;;;;;4.25;88.42;102490.03;5012250;27;20099;-73
2022/01/30 05:13:11;;;;;;;1.55;0.93;;;;;;;4.21;89.35;102504.03;5009913;27;20160;-71
2022/01/30 05:15:38;;;;;;;7.68;1.38;;;;;;;4.16;89.32;102503.28;5009998;27;20095;-73
2022/01/30 05:18:05;;;;;;;12.65;2.08;;;;;;;3.93;90.29;102518.59;5006375;27;20141;-73
2022/01/30 05:20:34;;;;;;;10.02;1.80;;;;;;;3.91;90.11;102522.97;5010799;27;20538;-71
2022/01/30 05:23:01;;;;;;;13.98;2.35;;;;;;;3.94;90.23;102506.47;5009378;27;20069;-73
2022/01/30 05:25:28;;;;;;;3.03;1.58;;;;;;;3.95;89.52;102514.22;5006866;27;20068;-72
2022/01/30 05:27:55;;;;;;;2.28;0.90;;;;;;;3.86;90.25;102511.84;5011413;27;20052;-72
2022/01/30 05:30:24;;;;;;;1.55;0.50;;;;;;;3.76;90.81;102506.91;5009914;27;20053;-73
2022/01/30 05:32:51;;;;;;;6.75;2.00;;;;;;;3.93;90.58;102516.00;5008771;27;20064;-71
2022/01/30 05:35:18;;;;;;;5.03;0.73;;;;;;;3.84;90.63;102515.38;5007093;27;20052;-71
2022/01/30 05:37:45;;;;;;;1.77;1.02;;;;;;;4.00;90.04;102512.34;5022798;27;20057;-71
2022/01/30 05:40:13;;;;;;;5.78;2.13;;;;;;;3.90;90.19;102523.84;5012546;27;20065;-73
2022/01/30 05:42:40;;;;;;;4.78;1.88;;;;;;;3.84;91.09;102521.41;5010590;28;20554;-73
2022/01/30 05:45:15;;;;;;;7.55;0.95;;;;;;;3.82;91.06;102523.19;5009258;27;20099;-72
2022/01/30 05:47:47;;;;;;;0.20;0.20;;;;;;;4.00;90.59;102522.75;5009537;27;20057;-71
2022/01/30 05:50:15;;;;;;;15.82;3.35;;;;;;;3.97;89.43;102522.84;5013029;27;20048;-73
2022/01/30 05:52:42;;;;;;;6.20;2.17;;;;;;;4.11;88.94;102523.34;5007121;27;20573;-71
2022/01/30 05:55:09;;;;;;;1.08;0.40;;;;;;;4.04;89.14;102535.66;5008329;27;20029;-73
2022/01/30 05:57:36;;;;;;;8.32;0.70;;;;;;;4.08;88.90;102532.09;5006902;27;20041;-72
2022/01/30 06:00:02;;;;;;;6.53;2.30;;;;;;;4.04;88.72;102534.81;5003897;27;20042;-72
2022/01/30 06:02:29;;;;;;;4.82;1.40;;;;;;;3.99;89.34;102531.44;5010805;27;20057;-73
2022/01/30 06:04:57;;;;;;;13.02;2.08;;;;;;;4.04;88.96;102534.81;5008812;27;20051;-74
2022/01/30 06:07:28;;;;;;;2.92;1.02;;;;;;;3.94;89.53;102533.31;5009751;27;20049;-72
2022/01/30 06:09:55;;;;;;;17.52;2.47;;;;;;;3.96;89.34;102537.56;5004359;27;20053;-72
2022/01/30 06:12:22;;;;;;;2.30;0.45;;;;;;;3.90;89.92;102536.84;5008565;27;20046;-73
2022/01/30 06:14:49;;;;;;;2.65;0.82;;;;;;;3.75;90.11;102539.81;5008431;27;20771;-73
2022/01/30 06:17:15;;;;;;;12.10;1.80;;;;;;;3.77;90.55;102550.19;5011439;27;20047;-73
2022/01/30 06:19:44;;;;;;;2.95;1.65;;;;;;;3.71;90.46;102558.09;5010160;27;20116;-73
2022/01/30 06:22:12;;;;;;;1.75;0.30;;;;;;;3.67;90.90;102567.72;5023006;27;20049;-73
2022/01/30 06:24:39;;;;;;;7.85;1.52;;;;;;;3.71;90.56;102564.19;5024239;28;20130;-72
2022/01/30 06:27:06;;;;;;;1.52;1.27;;;;;;;3.76;90.93;102572.72;5036514;27;20064;-70
2022/01/30 06:29:33;;;;;;;5.07;1.08;;;;;;;3.78;90.17;102567.47;5040056;28;20021;-72
2022/01/30 06:32:00;;;;;;;10.88;2.95;;;;;;;3.55;91.14;102575.78;5023611;28;20045;-73
2022/01/30 06:34:28;;;;;;;4.45;0.90;;;;;;;3.67;90.79;102569.47;5015825;28;20121;-72
2022/01/30 06:36:55;;;;;;;4.47;1.00;;;;;;;3.69;90.69;102573.75;5010240;28;20120;-72
2022/01/30 06:39:23;;;;;;;6.65;2.10;;;;;;;3.79;89.99;102572.66;5015482;28;20141;-74
2022/01/30 06:41:51;;;;;;;1.20;0.45;;;;;;;3.94;89.85;102568.88;5020069;27;20040;-72
2022/01/30 06:44:17;;;;;;;4.03;0.93;;;;;;;3.98;89.78;102567.00;5018840;27;20046;-73
2022/01/30 06:46:44;;;;;;;2.63;0.82;;;;;;;4.13;88.63;102571.81;5022088;27;20100;-70
2022/01/30 06:49:11;;;;;;;8.40;0.95;;;;;;;4.21;88.42;102589.88;5113129;27;20046;-71
2022/01/30 06:51:38;;;;;;;2.58;0.90;;;;;;;4.24;87.65;102585.44;5117793;27;20125;-70
2022/01/30 06:54:04;;;;;;;7.63;1.15;;;;;;;4.21;88.42;102595.06;5025266;27;20061;-71
2022/01/30 06:56:32;;;;;;;8.80;1.58;;;;;;;4.13;88.07;102597.84;5014117;28;20054;-72
2022/01/30 06:58:59;;;;;;;9.98;0.80;;;;;;;4.03;88.37;102601.53;5017080;27;20048;-72
2022/01/30 07:01:26;;;;;;;1.67;1.25;;;;;;;4.14;88.45;102596.94;5016170;28;20041;-72
2022/01/30 07:03:53;;;;;;;6.63;1.05;;;;;;;4.28;87.90;102601.81;5014752;28;20053;-73
2022/01/30 07:06:20;;;;;;;4.88;2.10;;;;;;;4.53;86.32;102613.34;5015319;28;20102;-73
2022/01/30 07:08:47;;;;;;;0.88;0.73;;;;;;;4.55;85.91;102611.56;5021270;27;20057;-72
2022/01/30 07:11:15;;;;;;;1.17;0.43;;;;;;;4.63;85.54;102607.88;5013131;28;20132;-71
2022/01/30 07:13:43;;;;;;;4.03;0.88;;;;;;;4.74;84.67;102609.28;5009343;28;20056;-71
2022/01/30 07:16:10;;;;;;;2.13;0.52;;;;;;;4.77;84.97;102618.78;5012639;28;20070;-72
2022/01/30 07:18:39;;;;;;;3.83;1.35;;;;;;;4.72;84.83;102616.28;5013807;27;20050;-71
2022/01/30 07:21:07;;;;;;;0.68;0.45;;;;;;;4.73;85.10;102636.22;5012174;28;20052;-71
2022/01/30 07:23:34;;;;;;;1.30;0.98;;;;;;;4.75;84.36;102625.78;5010096;28;20452;-72
2022/01/30 07:26:01;;;;;;;6.85;1.75;;;;;;;4.68;85.67;102628.56;5011897;28;20279;-72
2022/01/30 07:28:28;;;;;;;7.63;1.38;;;;;;;4.65;85.60;102641.66;5011526;28;20057;-71
2022/01/30 07:30:56;;;;;;;9.48;1.45;;;;;;;4.63;86.00;102640.84;5011049;28;20041;-71
2022/01/30 07:33:23;;;;;;;0.82;0.43;;;;;;;4.65;85.36;102639.94;5011775;28;20060;-70
2022/01/30 07:35:53;;;;;;;6.63;1.50;;;;;;;4.65;85.40;102659.88;5011168;28;20090;-69
2022/01/30 07:38:21;;;;;;;2.28;0.52;;;;;;;4.64;85.81;102655.59;5012362;28;20145;-72
2022/01/30 07:40:47;;;;;;;1.13;0.63;;;;;;;4.74;85.04;102663.13;5019883;28;20141;-71
2022/01/30 07:43:14;;;;;;;1.20;0.65;;;;;;;4.78;85.55;102659.53;5014243;28;20042;-70
2022/01/30 07:45:41;;;;;;;3.83;1.05;;;;;;;4.75;85.27;102657.88;5012384;28;20042;-71
2022/01/30 07:48:10;;;;;;;9.57;1.65;;;;;;;4.78;84.49;102657.81;5014491;28;20102;-70
2022/01/30 07:50:36;;;;;;;6.80;2.10;;;;;;;4.80;84.75;102656.00;5112001;27;20132;-72
2022/01/30 07:53:03;;;;;;;5.20;1.13;;;;;;;4.76;84.43;102659.59;5013951;28;20126;-71
2022/01/30 07:55:29;;;;;;;5.07;1.88;;;;;;;4.74;84.13;102655.31;5028510;28;20658;-70
2022/01/30 07:57:56;;;;;;;3.65;2.42;;;;;;;4.73;84.27;102664.84;5105724;27;20055;-71
2022/01/30 08:00:22;;;;;;;12.35;1.27;;;;;;;4.74;84.20;102666.56;5008254;28;20131;-69
2022/01/30 08:02:50;;;;;;;6.20;1.30;;;;;;;4.69;84.73;102658.91;5011342;28;20089;-72
2022/01/30 08:05:18;;;;;;;6.20;1.05;;;;;;;4.61;85.06;102666.91;5013741;28;20371;-73
2022/01/30 08:07:44;;;;;;;1.25;0.82;;;;;;;4.53;85.03;102674.03;5013121;28;20057;-72
2022/01/30 08:10:11;;;;;;;9.77;1.00;;;;;;;4.49;85.15;102675.03;5015694;28;20041;-73
2022/01/30 08:12:38;;;;;;;2.78;1.08;;;;;;;4.46;85.51;102682.03;5012463;28;20128;-73
2022/01/30 08:15:05;;;;;;;3.97;1.75;;;;;;;4.52;85.45;102687.94;5014503;28;20038;-73
2022/01/30 08:17:35;;;;;;;13.77;0.95;;;;;;;4.70;84.25;102678.84;5011604;28;20061;-72
2022/01/30 08:20:02;;;;;;;5.75;2.08;;;;;;;4.99;83.15;102685.88;5014103;28;20094;-72
2022/01/30 08:22:33;;;;;;;11.35;1.95;;;;;;;5.13;82.47;102682.94;5021188;28;20107;-72
2022/01/30 08:25:00;;;;;;;8.43;1.55;;;;;;;5.24;81.66;102686.13;5014656;28;20073;-74
2022/01/30 08:27:26;;;;;;;8.38;0.77;;;;;;;5.29;82.19;102684.22;5016287;28;20057;-72
2022/01/30 08:29:53;;;;;;;8.77;1.45;;;;;;;5.28;81.23;102686.00;5012738;28;20205;-73
2022/01/30 08:32:19;;;;;;;5.50;1.55;;;;;;;5.24;81.61;102683.53;5016886;28;20104;-73
2022/01/30 08:34:47;;;;;;;7.90;1.23;;;;;;;5.24;80.98;102688.72;5013866;28;20505;-72
2022/01/30 08:37:14;;;;;;;2.38;0.95;;;;;;;5.15;82.24;102688.97;5010965;28;20098;-73
2022/01/30 08:39:42;;;;;;;11.60;1.63;;;;;;;5.11;82.59;102682.97;5027082;28;20047;-72
2022/01/30 08:42:09;;;;;;;9.80;1.10;;;;;;;5.11;81.87;102682.97;5023224;28;20116;-73
2022/01/30 08:44:35;;;;;;;1.67;0.65;;;;;;;5.20;81.51;102693.16;5014041;28;20048;-72
2022/01/30 08:47:02;;;;;;;3.40;1.10;;;;;;;5.38;81.08;102687.44;5019181;27;20060;-72
2022/01/30 08:49:30;;;;;;;4.40;0.82;;;;;;;6.23;77.95;102686.72;5021249;28;20060;-72
2022/01/30 08:51:56;;;;;;;5.25;1.02;;;;;;;6.80;75.25;102681.34;5035663;27;20037;-72
2022/01/30 08:54:23;;;;;;;2.58;0.75;;;;;;;6.96;73.94;102681.72;5022195;28;20048;-73
2022/01/30 08:56:51;;;;;;;11.60;1.00;;;;;;;6.64;74.19;102685.38;5021121;28;20053;-72
2022/01/30 08:59:18;;;;;;;1.70;0.75;;;;;;;6.40;75.72;102694.00;5044825;27;20045;-72
2022/01/30 09:01:48;;;;;;;2.55;1.40;;;;;;;6.27;76.77;102690.97;5036999;28;20068;-71
2022/01/30 09:04:14;;;;;;;0.77;0.45;;;;;;;6.05;77.04;102697.69;5039697;28;20059;-72
2022/01/30 09:06:41;;;;;;;1.52;0.65;;;;;;;6.07;78.02;102690.69;5037113;27;20037;-72
2022/01/30 09:09:07;;;;;;;2.10;0.73;;;;;;;6.22;77.22;102695.44;5021262;28;20068;-72
2022/01/30 09:11:36;;;;;;;6.07;0.68;;;;;;;6.40;75.54;102674.88;5014233;28;20056;-72
2022/01/30 09:14:04;;;;;;;3.33;1.17;;;;;;;6.84;74.38;102682.09;5017890;28;20041;-73
2022/01/30 09:16:31;;;;;;;12.65;1.52;;;;;;;6.68;73.90;102691.34;5016844;28;20088;-73
2022/01/30 09:18:57;;;;;;;8.60;1.23;;;;;;;6.66;73.83;102694.03;5018040;28;20042;-72
2022/01/30 09:21:28;;;;;;;5.47;0.43;;;;;;;6.62;73.81;102695.00;5016013;28;20047;-71
2022/01/30 09:23:55;;;;;;;10.75;1.15;;;;;;;6.51;73.95;102699.75;5021374;27;20080;-71
2022/01/30 09:26:21;;;;;;;2.90;1.30;;;;;;;6.46;74.93;102706.84;5017097;28;20037;-71
2022/01/30 09:28:48;;;;;;;13.07;1.45;;;;;;;6.72;74.09;102701.66;5022360;27;20107;-74
2022/01/30 09:31:16;;;;;;;3.80;1.33;;;;;;;6.86;73.16;102707.28;5013061;28;20041;-74
2022/01/30 09:33:43;;;;;;;10.15;1.65;;;;;;;7.06;72.29;102699.63;5014864;28;20048;-73
2022/01/30 09:36:09;;;;;;;9.10;1.85;;;;;;;7.01;72.40;102711.16;5018499;28;20038;-72
2022/01/30 09:38:36;;;;;;;3.90;1.15;;;;;;;7.04;72.22;102719.72;5014076;28;20050;-73
2022/01/30 09:41:05;;;;;;;3.10;1.17;;;;;;;7.11;72.90;102713.38;5016590;28;20044;-72
2022/01/30 09:43:33;;;;;;;15.98;2.30;;;;;;;7.14;72.21;102715.06;5016242;28;20046;-72
2022/01/30 09:46:00;;;;;;;4.65;1.20;;;;;;;7.11;71.38;102723.00;5017135;28;20128;-73
2022/01/30 09:48:28;;;;;;;5.93;1.30;;;;;;;7.16;71.40;102716.72;5013742;28;20053;-72
2022/01/30 09:50:56;;;;;;;18.48;2.00;;;;;;;7.26;71.27;102718.13;5019301;28;20072;-72
2022/01/30 09:53:22;;;;;;;3.60;1.38;;;;;;;7.19;70.55;102716.59;5014625;28;20550;-73
2022/01/30 09:55:49;;;;;;;20.80;3.33;;;;;;;7.08;71.19;102720.47;5025195;27;20567;-73
2022/01/30 09:58:15;;;;;;;7.22;1.85;;;;;;;6.78;71.44;102730.19;5016736;28;20041;-72
2022/01/30 10:00:42;;;;;;;5.78;1.10;;;;;;;6.74;72.60;102728.59;5017136;28;20046;-76
2022/01/30 10:03:08;;;;;;;7.32;0.90;;;;;;;7.41;70.53;102718.44;5020384;28;20045;-69
2022/01/30 10:05:38;;;;;;;7.30;1.38;;;;;;;8.31;67.80;102721.19;5012587;28;20052;-71
2022/01/30 10:08:05;;;;;;;7.78;1.67;;;;;;;8.67;65.84;102719.72;5031621;27;20037;-68
2022/01/30 10:10:34;;;;;;;3.75;1.05;;;;;;;8.44;64.75;102722.41;5022263;27;20045;-69
2022/01/30 10:13:06;;;;;;;5.47;1.33;;;;;;;8.31;66.60;102726.44;5021282;27;20068;-69
2022/01/30 10:15:49;;;;;;;1.38;0.90;;;;;;;8.49;64.95;102715.25;5015068;28;20127;-70
2022/01/30 10:18:16;;;;;;;8.00;1.50;;;;;;;8.73;64.67;102724.75;5116686;27;20045;-72
2022/01/30 10:20:45;;;;;;;1.20;0.30;;;;;;;9.10;62.62;102717.94;5016483;27;20038;-69
2022/01/30 10:23:12;;;;;;;2.65;1.40;;;;;;;8.60;63.80;102723.50;5013977;28;20172;-70
2022/01/30 10:25:40;;;;;;;10.07;1.30;;;;;;;8.62;64.59;102716.44;5014428;28;20045;-72
2022/01/30 10:28:08;;;;;;;23.63;1.42;;;;;;;9.26;63.57;102711.13;5013595;28;20059;-70
2022/01/30 10:30:44;;;;;;;6.38;2.20;;;;;;;9.68;61.30;102702.22;5015851;28;20056;-69
2022/01/30 10:33:12;;;;;;;3.35;1.52;;;;;;;9.52;59.99;102702.97;5015374;28;20045;-68
2022/01/30 10:35:54;;;;;;;17.17;1.67;;;;;;;9.56;59.78;102701.91;5017480;28;20124;-69
2022/01/30 10:38:26;;;;;;;9.43;1.75;;;;;;;9.79;60.03;102710.50;5014930;28;20124;-70
2022/01/30 10:40:57;;;;;;;16.58;1.48;;;;;;;10.12;59.17;102702.88;5014795;28;20061;-69
2022/01/30 10:43:48;;;;;;;5.30;1.15;;;;;;;9.98;60.17;102702.66;5017769;28;20041;-71
2022/01/30 10:46:19;;;;;;;11.93;1.15;;;;;;;9.87;59.82;102705.75;5017815;27;20142;-73
2022/01/30 10:48:51;;;;;;;11.68;2.42;;;;;;;9.68;60.50;102704.84;5018550;28;20082;-72
2022/01/30 10:51:19;;;;;;;7.70;1.50;;;;;;;9.82;59.58;102707.69;5017099;28;20045;-73
2022/01/30 10:53:46;;;;;;;3.03;1.35;;;;;;;9.57;59.97;102706.25;5011894;28;20052;-76
2022/01/30 10:56:19;;;;;;;18.35;2.47;;;;;;;9.07;61.08;102719.84;5023170;28;20045;-72
2022/01/30 10:59:06;;;;;;;9.85;2.30;;;;;;;9.76;60.14;102718.50;5017549;27;20044;-72
2022/01/30 11:01:34;;;;;;;8.85;1.60;;;;;;;9.24;59.60;102707.72;5015964;28;20073;-74
2022/01/30 11:04:01;;;;;;;8.48;1.52;;;;;;;8.72;60.36;102720.41;5013619;28;20116;-76
2022/01/30 11:06:34;;;;;;;11.52;2.00;;;;;;;8.90;60.62;102719.69;5017648;27;20129;-69
2022/01/30 11:09:05;;;;;;;;;;;;;;;9.15;60.02;102712.50;5016082;28;20069;-69
2022/01/30 11:11:38;;;;;;;18.27;2.33;;;;;;;9.55;58.43;102709.88;5014704;28;19929;-71
2022/01/30 11:14:18;;;;;;;8.00;2.67;;;;;;;9.69;57.90;102703.94;5013231;28;20045;-72
2022/01/30 11:17:02;;;;;;;17.98;3.85;;;;;;;9.64;58.45;102698.03;5011625;28;20084;-73
2022/01/30 11:19:33;;;;;;;2.42;1.00;;;;;;;9.60;57.06;102695.63;5018714;28;20041;-73
2022/01/30 11:22:04;;;;;;;5.82;1.50;;;;;;;9.84;57.71;102697.16;5014601;28;20046;-74
2022/01/30 11:24:35;;;;;;;27.47;3.30;;;;;;;9.65;58.20;102691.84;5021750;28;20045;-72
2022/01/30 11:27:04;;;;;;;6.68;1.42;;;;;;;9.73;57.45;102699.41;5014058;28;20041;-72
2022/01/30 11:29:31;;;;;;;8.10;1.42;;;;;;;9.61;58.26;102685.06;5016765;28;20053;-72
2022/01/30 11:31:58;;;;;;;18.17;2.83;;;;;;;9.52;57.25;102675.88;5033815;28;20045;-73
2022/01/30 11:34:26;;;;;;;5.32;1.15;;;;;;;9.57;55.69;102680.84;5020318;28;20057;-72
2022/01/30 11:36:53;;;;;;;17.77;4.05;;;;;;;9.63;54.89;102677.97;5020940;28;20038;-74
2022/01/30 11:39:21;;;;;;;10.95;2.58;;;;;;;9.60;53.64;102670.22;5033149;28;20037;-73
2022/01/30 11:42:11;;;;;;;12.32;1.55;;;;;;;9.57;53.95;102665.09;5030513;28;20234;-73
2022/01/30 11:44:38;;;;;;;2.10;1.13;;;;;;;9.63;54.24;102662.22;5031691;28;20061;-71
2022/01/30 11:47:22;;;;;;;2.75;0.60;;;;;;;9.51;54.94;102661.06;5019639;28;20114;-71
2022/01/30 11:50:07;;;;;;;5.30;1.33;;;;;;;9.41;55.60;102655.38;5015861;28;20045;-71
2022/01/30 11:53:05;;;;;;;15.85;2.08;;;;;;;9.77;52.98;102646.72;5017675;28;20057;-71
2022/01/30 11:55:49;;;;;;;13.32;1.45;;;;;;;9.76;52.26;102638.91;5017045;28;20049;-72
2022/01/30 11:58:39;;;;;;;1.73;0.77;;;;;;;9.34;53.29;102640.84;5012305;28;20046;-73
2022/01/30 12:01:13;;;;;;;8.20;2.65;;;;;;;9.57;52.45;102641.50;5015358;28;20430;-72
2022/01/30 12:03:39;;;;;;;6.85;1.42;;;;;;;9.93;51.62;102634.56;5009181;28;20038;-73
2022/01/30 12:06:28;;;;;;;5.10;0.80;;;;;;;9.78;51.22;102648.41;5016858;28;20080;-72
2022/01/30 12:08:56;;;;;;;4.00;1.45;;;;;;;9.65;52.84;102647.25;5015917;28;20074;-72
2022/01/30 12:11:59;;;;;;;5.47;1.52;;;;;;;9.40;52.98;102635.31;5027363;28;20041;-71
2022/01/30 12:14:53;;;;;;;0.60;0.32;;;;;;;9.03;55.97;102640.44;5014513;28;20120;-74